sensor_id;sensor_type;location;lat;lon;timestamp;P1;durP1;ratioP1;P2;durP2;ratioP2
33491;SDS011;20010;51.488;7.232;2023-03-05T00:00:31;11.70;;;7.53;;
33491;SDS011;20010;51.488;7.232;2023-03-05T00:03:00;14.32;;;7.07;;
33491;SDS011;20010;51.488;7.232;2023-03-05T00:05:34;16.27;;;7.53;;
33491;SDS011;20010;51.488;7.232;2023-03-05T00:08:04;9.10;;;6.55;;
33491;SDS011;20010;51.488;7.232;2023-03-05T00:10:32;14.10;;;8.02;;
33491;SDS011;20010;51.488;7.232;2023-03-05T00:13:11;13.15;;;6.68;;
33491;SDS011;20010;51.488;7.232;2023-03-05T00:15:44;13.38;;;7.55;;
33491;SDS011;20010;51.488;7.232;2023-03-05T00:18:18;16.77;;;8.57;;
33491;SDS011;20010;51.488;7.232;2023-03-05T00:20:46;15.75;;;7.20;;
33491;SDS011;20010;51.488;7.232;2023-03-05T00:23:15;16.85;;;8.02;;
33491;SDS011;20010;51.488;7.232;2023-03-05T00:25:46;11.73;;;7.43;;
33491;SDS011;20010;51.488;7.232;2023-03-05T00:28:15;12.70;;;9.05;;
33491;SDS011;20010;51.488;7.232;2023-03-05T00:30:43;11.32;;;7.35;;
33491;SDS011;20010;51.488;7.232;2023-03-05T00:33:16;15.75;;;7.80;;
33491;SDS011;20010;51.488;7.232;2023-03-05T00:35:45;10.05;;;6.50;;
33491;SDS011;20010;51.488;7.232;2023-03-05T00:38:17;8.73;;;6.68;;
33491;SDS011;20010;51.488;7.232;2023-03-05T00:40:48;14.23;;;6.63;;
33491;SDS011;20010;51.488;7.232;2023-03-05T00:43:22;10.23;;;7.22;;
33491;SDS011;20010;51.488;7.232;2023-03-05T00:45:56;12.95;;;7.05;;
33491;SDS011;20010;51.488;7.232;2023-03-05T00:48:35;10.13;;;7.05;;
33491;SDS011;20010;51.488;7.232;2023-03-05T00:51:04;9.88;;;6.72;;
33491;SDS011;20010;51.488;7.232;2023-03-05T00:53:34;10.13;;;6.95;;
33491;SDS011;20010;51.488;7.232;2023-03-05T00:56:07;14.18;;;7.20;;
33491;SDS011;20010;51.488;7.232;2023-03-05T00:58:35;16.73;;;7.00;;
33491;SDS011;20010;51.488;7.232;2023-03-05T01:01:16;10.93;;;7.22;;
33491;SDS011;20010;51.488;7.232;2023-03-05T01:03:50;8.40;;;6.47;;
33491;SDS011;20010;51.488;7.232;2023-03-05T01:06:20;14.88;;;6.65;;
33491;SDS011;20010;51.488;7.232;2023-03-05T01:08:49;12.73;;;7.50;;
33491;SDS011;20010;51.488;7.232;2023-03-05T01:11:17;16.73;;;7.07;;
33491;SDS011;20010;51.488;7.232;2023-03-05T01:13:47;10.57;;;6.20;;
33491;SDS011;20010;51.488;7.232;2023-03-05T01:16:16;14.05;;;7.18;;
33491;SDS011;20010;51.488;7.232;2023-03-05T01:18:58;12.93;;;6.72;;
33491;SDS011;20010;51.488;7.232;2023-03-05T01:21:27;10.68;;;6.40;;
33491;SDS011;20010;51.488;7.232;2023-03-05T01:26:25;9.35;;;6.30;;
33491;SDS011;20010;51.488;7.232;2023-03-05T01:28:59;8.63;;;6.32;;
33491;SDS011;20010;51.488;7.232;2023-03-05T01:31:29;9.30;;;6.63;;
33491;SDS011;20010;51.488;7.232;2023-03-05T01:33:58;10.52;;;7.10;;
33491;SDS011;20010;51.488;7.232;2023-03-05T01:36:28;11.65;;;6.53;;
33491;SDS011;20010;51.488;7.232;2023-03-05T01:38:58;7.30;;;6.32;;
33491;SDS011;20010;51.488;7.232;2023-03-05T01:41:32;8.73;;;6.18;;
33491;SDS011;20010;51.488;7.232;2023-03-05T01:44:03;10.25;;;6.43;;
33491;SDS011;20010;51.488;7.232;2023-03-05T01:46:45;10.85;;;6.93;;
33491;SDS011;20010;51.488;7.232;2023-03-05T01:49:21;13.32;;;6.97;;
33491;SDS011;20010;51.488;7.232;2023-03-05T01:52:17;8.18;;;6.43;;
33491;SDS011;20010;51.488;7.232;2023-03-05T01:54:48;7.47;;;6.30;;
33491;SDS011;20010;51.488;7.232;2023-03-05T02:00:17;14.57;;;6.95;;
33491;SDS011;20010;51.488;7.232;2023-03-05T02:03:04;11.98;;;8.93;;
33491;SDS011;20010;51.488;7.232;2023-03-05T02:05:40;10.15;;;6.63;;
33491;SDS011;20010;51.488;7.232;2023-03-05T02:08:14;8.15;;;6.78;;
33491;SDS011;20010;51.488;7.232;2023-03-05T02:10:56;10.95;;;6.72;;
33491;SDS011;20010;51.488;7.232;2023-03-05T02:13:25;11.32;;;6.60;;
33491;SDS011;20010;51.488;7.232;2023-03-05T02:16:02;8.70;;;6.78;;
33491;SDS011;20010;51.488;7.232;2023-03-05T02:18:31;7.70;;;6.93;;
33491;SDS011;20010;51.488;7.232;2023-03-05T02:23:43;9.05;;;7.35;;
33491;SDS011;20010;51.488;7.232;2023-03-05T02:26:14;10.00;;;7.35;;
33491;SDS011;20010;51.488;7.232;2023-03-05T02:28:49;9.50;;;7.13;;
33491;SDS011;20010;51.488;7.232;2023-03-05T02:31:24;12.43;;;7.30;;
33491;SDS011;20010;51.488;7.232;2023-03-05T02:33:52;11.18;;;6.25;;
33491;SDS011;20010;51.488;7.232;2023-03-05T02:36:22;11.13;;;6.55;;
33491;SDS011;20010;51.488;7.232;2023-03-05T02:38:49;12.40;;;6.70;;
33491;SDS011;20010;51.488;7.232;2023-03-05T02:41:24;7.63;;;6.35;;
33491;SDS011;20010;51.488;7.232;2023-03-05T02:43:53;9.70;;;6.70;;
33491;SDS011;20010;51.488;7.232;2023-03-05T02:46:25;9.43;;;7.03;;
33491;SDS011;20010;51.488;7.232;2023-03-05T02:48:52;10.20;;;7.22;;
33491;SDS011;20010;51.488;7.232;2023-03-05T02:51:25;8.73;;;7.28;;
33491;SDS011;20010;51.488;7.232;2023-03-05T02:53:55;7.07;;;6.38;;
33491;SDS011;20010;51.488;7.232;2023-03-05T02:56:30;7.05;;;6.55;;
33491;SDS011;20010;51.488;7.232;2023-03-05T02:59:03;6.90;;;6.20;;
33491;SDS011;20010;51.488;7.232;2023-03-05T03:01:32;9.70;;;6.35;;
33491;SDS011;20010;51.488;7.232;2023-03-05T03:04:17;8.88;;;7.25;;
33491;SDS011;20010;51.488;7.232;2023-03-05T03:06:52;7.50;;;6.47;;
33491;SDS011;20010;51.488;7.232;2023-03-05T03:09:22;9.32;;;6.70;;
33491;SDS011;20010;51.488;7.232;2023-03-05T03:11:55;7.28;;;6.30;;
33491;SDS011;20010;51.488;7.232;2023-03-05T03:14:40;7.57;;;6.88;;
33491;SDS011;20010;51.488;7.232;2023-03-05T03:17:36;10.70;;;7.03;;
33491;SDS011;20010;51.488;7.232;2023-03-05T03:20:08;9.60;;;7.43;;
33491;SDS011;20010;51.488;7.232;2023-03-05T03:22:49;7.57;;;6.30;;
33491;SDS011;20010;51.488;7.232;2023-03-05T03:25:34;10.30;;;7.85;;
33491;SDS011;20010;51.488;7.232;2023-03-05T03:28:09;10.25;;;7.30;;
33491;SDS011;20010;51.488;7.232;2023-03-05T03:30:39;10.25;;;7.57;;
33491;SDS011;20010;51.488;7.232;2023-03-05T03:33:11;10.98;;;7.30;;
33491;SDS011;20010;51.488;7.232;2023-03-05T03:35:46;10.73;;;7.30;;
33491;SDS011;20010;51.488;7.232;2023-03-05T03:38:30;13.07;;;8.70;;
33491;SDS011;20010;51.488;7.232;2023-03-05T03:41:04;10.02;;;7.57;;
33491;SDS011;20010;51.488;7.232;2023-03-05T03:43:34;10.50;;;7.38;;
33491;SDS011;20010;51.488;7.232;2023-03-05T03:46:06;9.35;;;7.82;;
33491;SDS011;20010;51.488;7.232;2023-03-05T03:48:36;8.73;;;7.10;;
33491;SDS011;20010;51.488;7.232;2023-03-05T03:51:08;7.80;;;6.95;;
33491;SDS011;20010;51.488;7.232;2023-03-05T03:53:41;8.07;;;6.68;;
33491;SDS011;20010;51.488;7.232;2023-03-05T03:56:12;14.07;;;7.20;;
33491;SDS011;20010;51.488;7.232;2023-03-05T03:58:50;9.65;;;7.50;;
33491;SDS011;20010;51.488;7.232;2023-03-05T04:01:20;10.77;;;7.25;;
33491;SDS011;20010;51.488;7.232;2023-03-05T04:03:51;12.43;;;7.93;;
33491;SDS011;20010;51.488;7.232;2023-03-05T04:06:20;7.80;;;7.00;;
33491;SDS011;20010;51.488;7.232;2023-03-05T04:08:47;9.65;;;8.18;;
33491;SDS011;20010;51.488;7.232;2023-03-05T04:11:16;10.25;;;7.50;;
33491;SDS011;20010;51.488;7.232;2023-03-05T04:13:47;11.63;;;8.88;;
33491;SDS011;20010;51.488;7.232;2023-03-05T04:16:18;9.90;;;8.07;;
33491;SDS011;20010;51.488;7.232;2023-03-05T04:18:58;10.27;;;7.38;;
33491;SDS011;20010;51.488;7.232;2023-03-05T04:21:32;14.82;;;8.13;;
33491;SDS011;20010;51.488;7.232;2023-03-05T04:24:03;13.30;;;8.43;;
33491;SDS011;20010;51.488;7.232;2023-03-05T04:26:38;14.95;;;8.20;;
33491;SDS011;20010;51.488;7.232;2023-03-05T04:29:07;14.85;;;8.45;;
33491;SDS011;20010;51.488;7.232;2023-03-05T04:32:02;17.58;;;11.15;;
33491;SDS011;20010;51.488;7.232;2023-03-05T04:34:32;16.42;;;10.07;;
33491;SDS011;20010;51.488;7.232;2023-03-05T04:37:02;15.27;;;10.45;;
33491;SDS011;20010;51.488;7.232;2023-03-05T04:39:33;13.65;;;9.57;;
33491;SDS011;20010;51.488;7.232;2023-03-05T04:42:07;17.50;;;10.18;;
33491;SDS011;20010;51.488;7.232;2023-03-05T04:44:39;14.13;;;9.63;;
33491;SDS011;20010;51.488;7.232;2023-03-05T04:47:10;12.35;;;9.55;;
33491;SDS011;20010;51.488;7.232;2023-03-05T04:49:46;15.25;;;10.30;;
33491;SDS011;20010;51.488;7.232;2023-03-05T04:52:20;12.63;;;9.15;;
33491;SDS011;20010;51.488;7.232;2023-03-05T04:54:49;15.70;;;8.95;;
33491;SDS011;20010;51.488;7.232;2023-03-05T04:57:16;10.32;;;8.48;;
33491;SDS011;20010;51.488;7.232;2023-03-05T04:59:45;15.05;;;8.70;;
33491;SDS011;20010;51.488;7.232;2023-03-05T05:02:13;9.95;;;7.50;;
33491;SDS011;20010;51.488;7.232;2023-03-05T05:04:40;9.90;;;7.35;;
33491;SDS011;20010;51.488;7.232;2023-03-05T05:07:10;18.13;;;9.10;;
33491;SDS011;20010;51.488;7.232;2023-03-05T05:09:38;10.48;;;7.68;;
33491;SDS011;20010;51.488;7.232;2023-03-05T05:12:06;10.40;;;6.93;;
33491;SDS011;20010;51.488;7.232;2023-03-05T05:14:33;7.68;;;6.85;;
33491;SDS011;20010;51.488;7.232;2023-03-05T05:17:00;6.93;;;6.20;;
33491;SDS011;20010;51.488;7.232;2023-03-05T05:19:33;7.45;;;6.70;;
33491;SDS011;20010;51.488;7.232;2023-03-05T05:22:00;7.55;;;6.28;;
33491;SDS011;20010;51.488;7.232;2023-03-05T05:24:27;6.90;;;6.25;;
33491;SDS011;20010;51.488;7.232;2023-03-05T05:26:54;7.40;;;6.55;;
33491;SDS011;20010;51.488;7.232;2023-03-05T05:29:21;9.18;;;7.18;;
33491;SDS011;20010;51.488;7.232;2023-03-05T05:31:48;8.30;;;7.18;;
33491;SDS011;20010;51.488;7.232;2023-03-05T05:34:14;15.98;;;7.88;;
33491;SDS011;20010;51.488;7.232;2023-03-05T05:36:41;7.57;;;6.88;;
33491;SDS011;20010;51.488;7.232;2023-03-05T05:39:08;10.95;;;7.18;;
33491;SDS011;20010;51.488;7.232;2023-03-05T05:41:34;10.43;;;7.60;;
33491;SDS011;20010;51.488;7.232;2023-03-05T05:44:01;8.27;;;7.47;;
33491;SDS011;20010;51.488;7.232;2023-03-05T05:46:27;9.15;;;7.65;;
33491;SDS011;20010;51.488;7.232;2023-03-05T05:48:54;9.88;;;7.22;;
33491;SDS011;20010;51.488;7.232;2023-03-05T05:51:21;8.82;;;7.43;;
33491;SDS011;20010;51.488;7.232;2023-03-05T05:53:48;13.93;;;8.65;;
33491;SDS011;20010;51.488;7.232;2023-03-05T05:56:15;12.55;;;9.13;;
33491;SDS011;20010;51.488;7.232;2023-03-05T05:58:43;13.48;;;9.63;;
33491;SDS011;20010;51.488;7.232;2023-03-05T06:01:16;12.75;;;9.88;;
33491;SDS011;20010;51.488;7.232;2023-03-05T06:03:51;16.25;;;10.25;;
33491;SDS011;20010;51.488;7.232;2023-03-05T06:06:21;19.58;;;10.15;;
33491;SDS011;20010;51.488;7.232;2023-03-05T06:08:49;16.45;;;9.98;;
33491;SDS011;20010;51.488;7.232;2023-03-05T06:11:16;15.00;;;10.57;;
33491;SDS011;20010;51.488;7.232;2023-03-05T06:13:45;18.35;;;10.93;;
33491;SDS011;20010;51.488;7.232;2023-03-05T06:16:13;15.38;;;10.13;;
33491;SDS011;20010;51.488;7.232;2023-03-05T06:18:41;20.00;;;10.75;;
33491;SDS011;20010;51.488;7.232;2023-03-05T06:21:10;19.92;;;11.27;;
33491;SDS011;20010;51.488;7.232;2023-03-05T06:23:38;13.93;;;11.07;;
33491;SDS011;20010;51.488;7.232;2023-03-05T06:26:05;20.30;;;11.55;;
33491;SDS011;20010;51.488;7.232;2023-03-05T06:28:33;17.13;;;10.43;;
33491;SDS011;20010;51.488;7.232;2023-03-05T06:31:01;19.27;;;11.75;;
33491;SDS011;20010;51.488;7.232;2023-03-05T06:33:31;17.60;;;11.50;;
33491;SDS011;20010;51.488;7.232;2023-03-05T06:35:59;19.98;;;11.18;;
33491;SDS011;20010;51.488;7.232;2023-03-05T06:38:28;15.07;;;10.75;;
33491;SDS011;20010;51.488;7.232;2023-03-05T06:40:59;21.08;;;10.27;;
33491;SDS011;20010;51.488;7.232;2023-03-05T06:43:26;28.25;;;15.32;;
33491;SDS011;20010;51.488;7.232;2023-03-05T06:48:51;18.17;;;10.32;;
33491;SDS011;20010;51.488;7.232;2023-03-05T06:51:19;14.90;;;9.95;;
33491;SDS011;20010;51.488;7.232;2023-03-05T06:53:48;18.77;;;9.48;;
33491;SDS011;20010;51.488;7.232;2023-03-05T06:56:15;19.85;;;9.35;;
33491;SDS011;20010;51.488;7.232;2023-03-05T06:58:42;18.27;;;9.35;;
33491;SDS011;20010;51.488;7.232;2023-03-05T07:01:11;16.90;;;8.73;;
33491;SDS011;20010;51.488;7.232;2023-03-05T07:03:38;14.65;;;9.18;;
33491;SDS011;20010;51.488;7.232;2023-03-05T07:06:06;14.82;;;8.98;;
33491;SDS011;20010;51.488;7.232;2023-03-05T07:08:35;12.63;;;9.00;;
33491;SDS011;20010;51.488;7.232;2023-03-05T07:11:01;18.70;;;9.85;;
33491;SDS011;20010;51.488;7.232;2023-03-05T07:13:28;12.82;;;9.60;;
33491;SDS011;20010;51.488;7.232;2023-03-05T07:15:55;18.60;;;9.35;;
33491;SDS011;20010;51.488;7.232;2023-03-05T07:18:21;15.48;;;8.50;;
33491;SDS011;20010;51.488;7.232;2023-03-05T07:20:48;18.77;;;8.27;;
33491;SDS011;20010;51.488;7.232;2023-03-05T07:23:14;15.02;;;8.75;;
33491;SDS011;20010;51.488;7.232;2023-03-05T07:25:41;13.30;;;8.57;;
33491;SDS011;20010;51.488;7.232;2023-03-05T07:28:07;15.02;;;7.90;;
33491;SDS011;20010;51.488;7.232;2023-03-05T07:30:35;16.08;;;8.30;;
33491;SDS011;20010;51.488;7.232;2023-03-05T07:33:02;17.50;;;8.27;;
33491;SDS011;20010;51.488;7.232;2023-03-05T07:35:28;10.45;;;8.35;;
33491;SDS011;20010;51.488;7.232;2023-03-05T07:37:55;14.88;;;8.52;;
33491;SDS011;20010;51.488;7.232;2023-03-05T07:40:22;21.58;;;9.05;;
33491;SDS011;20010;51.488;7.232;2023-03-05T07:42:49;15.52;;;8.40;;
33491;SDS011;20010;51.488;7.232;2023-03-05T07:45:16;12.30;;;8.82;;
33491;SDS011;20010;51.488;7.232;2023-03-05T07:47:43;15.40;;;9.60;;
33491;SDS011;20010;51.488;7.232;2023-03-05T07:50:09;16.63;;;9.23;;
33491;SDS011;20010;51.488;7.232;2023-03-05T07:52:38;14.38;;;9.02;;
33491;SDS011;20010;51.488;7.232;2023-03-05T07:55:04;16.33;;;9.15;;
33491;SDS011;20010;51.488;7.232;2023-03-05T07:57:31;12.80;;;10.13;;
33491;SDS011;20010;51.488;7.232;2023-03-05T07:59:58;20.33;;;9.95;;
33491;SDS011;20010;51.488;7.232;2023-03-05T08:02:25;16.98;;;9.82;;
33491;SDS011;20010;51.488;7.232;2023-03-05T08:04:51;18.05;;;10.30;;
33491;SDS011;20010;51.488;7.232;2023-03-05T08:07:18;18.10;;;10.30;;
33491;SDS011;20010;51.488;7.232;2023-03-05T08:09:44;12.65;;;8.50;;
33491;SDS011;20010;51.488;7.232;2023-03-05T08:12:11;13.82;;;8.07;;
33491;SDS011;20010;51.488;7.232;2023-03-05T08:14:37;11.88;;;8.90;;
33491;SDS011;20010;51.488;7.232;2023-03-05T08:17:04;11.45;;;8.85;;
33491;SDS011;20010;51.488;7.232;2023-03-05T08:19:31;15.55;;;10.57;;
33491;SDS011;20010;51.488;7.232;2023-03-05T08:21:58;15.05;;;9.10;;
33491;SDS011;20010;51.488;7.232;2023-03-05T08:24:25;17.52;;;9.38;;
33491;SDS011;20010;51.488;7.232;2023-03-05T08:26:55;14.65;;;8.73;;
33491;SDS011;20010;51.488;7.232;2023-03-05T08:29:23;17.77;;;11.38;;
33491;SDS011;20010;51.488;7.232;2023-03-05T08:31:50;14.75;;;11.43;;
33491;SDS011;20010;51.488;7.232;2023-03-05T08:34:22;12.95;;;10.38;;
33491;SDS011;20010;51.488;7.232;2023-03-05T08:36:48;14.02;;;10.23;;
33491;SDS011;20010;51.488;7.232;2023-03-05T08:39:15;11.80;;;8.80;;
33491;SDS011;20010;51.488;7.232;2023-03-05T08:41:42;9.18;;;8.27;;
33491;SDS011;20010;51.488;7.232;2023-03-05T08:44:08;25.98;;;16.95;;
33491;SDS011;20010;51.488;7.232;2023-03-05T08:46:37;12.35;;;8.68;;
33491;SDS011;20010;51.488;7.232;2023-03-05T08:49:04;11.52;;;9.68;;
33491;SDS011;20010;51.488;7.232;2023-03-05T08:51:32;18.33;;;12.43;;
33491;SDS011;20010;51.488;7.232;2023-03-05T08:53:59;12.10;;;10.80;;
33491;SDS011;20010;51.488;7.232;2023-03-05T08:56:26;20.10;;;11.70;;
33491;SDS011;20010;51.488;7.232;2023-03-05T08:58:56;15.30;;;12.07;;
33491;SDS011;20010;51.488;7.232;2023-03-05T09:01:22;17.58;;;11.77;;
33491;SDS011;20010;51.488;7.232;2023-03-05T09:03:49;13.93;;;10.02;;
33491;SDS011;20010;51.488;7.232;2023-03-05T09:06:16;13.13;;;11.60;;
33491;SDS011;20010;51.488;7.232;2023-03-05T09:08:43;11.95;;;10.68;;
33491;SDS011;20010;51.488;7.232;2023-03-05T09:11:10;16.67;;;11.07;;
33491;SDS011;20010;51.488;7.232;2023-03-05T09:13:37;13.20;;;11.80;;
33491;SDS011;20010;51.488;7.232;2023-03-05T09:16:05;14.68;;;13.25;;
33491;SDS011;20010;51.488;7.232;2023-03-05T09:18:33;16.80;;;14.25;;
33491;SDS011;20010;51.488;7.232;2023-03-05T09:21:06;16.98;;;14.65;;
33491;SDS011;20010;51.488;7.232;2023-03-05T09:23:33;17.33;;;15.60;;
33491;SDS011;20010;51.488;7.232;2023-03-05T09:26:00;18.05;;;16.15;;
33491;SDS011;20010;51.488;7.232;2023-03-05T09:28:27;21.58;;;17.25;;
33491;SDS011;20010;51.488;7.232;2023-03-05T09:30:54;22.35;;;17.20;;
33491;SDS011;20010;51.488;7.232;2023-03-05T09:33:20;25.27;;;18.98;;
33491;SDS011;20010;51.488;7.232;2023-03-05T09:35:47;24.17;;;18.65;;
33491;SDS011;20010;51.488;7.232;2023-03-05T09:38:14;23.85;;;19.60;;
33491;SDS011;20010;51.488;7.232;2023-03-05T09:49:14;29.08;;;22.33;;
33491;SDS011;20010;51.488;7.232;2023-03-05T09:51:41;26.30;;;20.17;;
33491;SDS011;20010;51.488;7.232;2023-03-05T09:54:19;33.05;;;21.90;;
33491;SDS011;20010;51.488;7.232;2023-03-05T09:56:59;27.15;;;21.13;;
33491;SDS011;20010;51.488;7.232;2023-03-05T10:01:55;25.48;;;19.15;;
33491;SDS011;20010;51.488;7.232;2023-03-05T10:04:25;27.40;;;20.02;;
33491;SDS011;20010;51.488;7.232;2023-03-05T10:07:16;29.15;;;20.08;;
33491;SDS011;20010;51.488;7.232;2023-03-05T10:15:12;23.77;;;18.67;;
33491;SDS011;20010;51.488;7.232;2023-03-05T10:35:15;17.17;;;15.27;;
33491;SDS011;20010;51.488;7.232;2023-03-05T10:40:14;20.50;;;14.57;;
33491;SDS011;20010;51.488;7.232;2023-03-05T10:45:44;17.92;;;13.75;;
33491;SDS011;20010;51.488;7.232;2023-03-05T10:51:22;13.85;;;11.45;;
33491;SDS011;20010;51.488;7.232;2023-03-05T10:56:37;13.95;;;11.30;;
33491;SDS011;20010;51.488;7.232;2023-03-05T10:59:05;12.55;;;11.25;;
33491;SDS011;20010;51.488;7.232;2023-03-05T11:01:32;12.00;;;10.90;;
33491;SDS011;20010;51.488;7.232;2023-03-05T11:07:43;16.55;;;12.35;;
33491;SDS011;20010;51.488;7.232;2023-03-05T11:10:17;14.75;;;12.45;;
33491;SDS011;20010;51.488;7.232;2023-03-05T11:12:46;14.18;;;10.63;;
33491;SDS011;20010;51.488;7.232;2023-03-05T11:17:43;11.75;;;10.07;;
33491;SDS011;20010;51.488;7.232;2023-03-05T11:28:22;12.57;;;11.38;;
33491;SDS011;20010;51.488;7.232;2023-03-05T11:41:34;14.63;;;13.25;;
33491;SDS011;20010;51.488;7.232;2023-03-05T11:44:12;16.42;;;14.80;;
33491;SDS011;20010;51.488;7.232;2023-03-05T11:46:42;16.77;;;14.57;;
33491;SDS011;20010;51.488;7.232;2023-03-05T11:54:28;11.65;;;10.73;;
33491;SDS011;20010;51.488;7.232;2023-03-05T11:57:02;14.98;;;12.73;;
33491;SDS011;20010;51.488;7.232;2023-03-05T11:59:30;12.15;;;11.15;;
33491;SDS011;20010;51.488;7.232;2023-03-05T12:02:02;12.18;;;11.07;;
33491;SDS011;20010;51.488;7.232;2023-03-05T12:04:29;13.82;;;11.38;;
33491;SDS011;20010;51.488;7.232;2023-03-05T12:07:01;10.07;;;9.27;;
33491;SDS011;20010;51.488;7.232;2023-03-05T12:14:40;10.00;;;9.23;;
33491;SDS011;20010;51.488;7.232;2023-03-05T12:19:50;7.85;;;7.35;;
33491;SDS011;20010;51.488;7.232;2023-03-05T12:22:24;7.60;;;6.90;;
33491;SDS011;20010;51.488;7.232;2023-03-05T12:24:52;6.38;;;5.68;;
33491;SDS011;20010;51.488;7.232;2023-03-05T12:27:34;5.47;;;5.13;;
33491;SDS011;20010;51.488;7.232;2023-03-05T12:30:02;5.47;;;5.07;;
33491;SDS011;20010;51.488;7.232;2023-03-05T12:35:03;5.25;;;4.93;;
33491;SDS011;20010;51.488;7.232;2023-03-05T12:47:35;7.30;;;6.80;;
33491;SDS011;20010;51.488;7.232;2023-03-05T12:50:45;7.25;;;6.60;;
33491;SDS011;20010;51.488;7.232;2023-03-05T12:52:55;7.00;;;6.60;;
33491;SDS011;20010;51.488;7.232;2023-03-05T13:03:57;8.90;;;8.20;;
33491;SDS011;20010;51.488;7.232;2023-03-05T13:06:31;8.98;;;8.38;;
33491;SDS011;20010;51.488;7.232;2023-03-05T13:09:18;10.07;;;9.30;;
33491;SDS011;20010;51.488;7.232;2023-03-05T13:11:51;11.82;;;8.65;;
33491;SDS011;20010;51.488;7.232;2023-03-05T13:16:57;9.45;;;8.52;;
33491;SDS011;20010;51.488;7.232;2023-03-05T13:19:24;8.45;;;7.95;;
33491;SDS011;20010;51.488;7.232;2023-03-05T13:22:02;8.98;;;8.27;;
33491;SDS011;20010;51.488;7.232;2023-03-05T13:24:34;8.85;;;8.25;;
33491;SDS011;20010;51.488;7.232;2023-03-05T13:27:00;8.43;;;7.85;;
33491;SDS011;20010;51.488;7.232;2023-03-05T13:29:28;8.10;;;7.40;;
33491;SDS011;20010;51.488;7.232;2023-03-05T13:34:27;8.10;;;7.40;;
33491;SDS011;20010;51.488;7.232;2023-03-05T13:37:20;7.45;;;6.85;;
33491;SDS011;20010;51.488;7.232;2023-03-05T13:39:49;7.78;;;7.22;;
33491;SDS011;20010;51.488;7.232;2023-03-05T13:42:24;7.72;;;7.10;;
33491;SDS011;20010;51.488;7.232;2023-03-05T13:45:00;8.60;;;8.00;;
33491;SDS011;20010;51.488;7.232;2023-03-05T13:47:51;8.65;;;8.05;;
33491;SDS011;20010;51.488;7.232;2023-03-05T13:50:23;7.65;;;6.95;;
33491;SDS011;20010;51.488;7.232;2023-03-05T13:52:51;7.90;;;7.20;;
33491;SDS011;20010;51.488;7.232;2023-03-05T13:55:18;7.95;;;7.20;;
33491;SDS011;20010;51.488;7.232;2023-03-05T13:57:45;7.05;;;6.32;;
33491;SDS011;20010;51.488;7.232;2023-03-05T14:05:55;6.10;;;5.70;;
33491;SDS011;20010;51.488;7.232;2023-03-05T14:08:22;6.70;;;6.20;;
33491;SDS011;20010;51.488;7.232;2023-03-05T14:10:51;7.07;;;6.68;;
33491;SDS011;20010;51.488;7.232;2023-03-05T14:13:19;7.20;;;6.80;;
33491;SDS011;20010;51.488;7.232;2023-03-05T14:16:08;6.53;;;6.00;;
33491;SDS011;20010;51.488;7.232;2023-03-05T14:18:36;6.25;;;5.88;;
33491;SDS011;20010;51.488;7.232;2023-03-05T14:21:07;6.20;;;5.75;;
33491;SDS011;20010;51.488;7.232;2023-03-05T14:26:31;6.35;;;5.95;;
33491;SDS011;20010;51.488;7.232;2023-03-05T14:31:37;5.60;;;5.30;;
33491;SDS011;20010;51.488;7.232;2023-03-05T14:34:16;6.15;;;5.82;;
33491;SDS011;20010;51.488;7.232;2023-03-05T14:36:49;6.50;;;6.10;;
33491;SDS011;20010;51.488;7.232;2023-03-05T14:39:31;6.53;;;5.85;;
33491;SDS011;20010;51.488;7.232;2023-03-05T14:44:54;6.53;;;6.13;;
33491;SDS011;20010;51.488;7.232;2023-03-05T14:47:22;7.82;;;6.25;;
33491;SDS011;20010;51.488;7.232;2023-03-05T14:49:49;7.45;;;6.75;;
33491;SDS011;20010;51.488;7.232;2023-03-05T14:52:18;9.05;;;8.45;;
33491;SDS011;20010;51.488;7.232;2023-03-05T14:54:46;10.13;;;9.32;;
33491;SDS011;20010;51.488;7.232;2023-03-05T14:57:14;11.50;;;10.48;;
33491;SDS011;20010;51.488;7.232;2023-03-05T14:59:42;11.38;;;10.48;;
33491;SDS011;20010;51.488;7.232;2023-03-05T15:02:16;12.73;;;11.43;;
33491;SDS011;20010;51.488;7.232;2023-03-05T15:04:44;13.30;;;12.05;;
33491;SDS011;20010;51.488;7.232;2023-03-05T15:09:46;13.05;;;11.90;;
33491;SDS011;20010;51.488;7.232;2023-03-05T15:12:14;12.43;;;11.18;;
33491;SDS011;20010;51.488;7.232;2023-03-05T15:14:42;12.98;;;11.82;;
33491;SDS011;20010;51.488;7.232;2023-03-05T15:17:12;12.55;;;11.25;;
33491;SDS011;20010;51.488;7.232;2023-03-05T15:19:40;12.93;;;11.07;;
33491;SDS011;20010;51.488;7.232;2023-03-05T15:22:08;11.00;;;9.88;;
33491;SDS011;20010;51.488;7.232;2023-03-05T15:24:39;10.27;;;9.38;;
33491;SDS011;20010;51.488;7.232;2023-03-05T15:27:06;9.07;;;8.48;;
33491;SDS011;20010;51.488;7.232;2023-03-05T15:29:43;9.07;;;8.38;;
33491;SDS011;20010;51.488;7.232;2023-03-05T15:32:10;9.48;;;8.82;;
33491;SDS011;20010;51.488;7.232;2023-03-05T15:34:37;9.80;;;8.80;;
33491;SDS011;20010;51.488;7.232;2023-03-05T15:37:03;10.15;;;9.30;;
33491;SDS011;20010;51.488;7.232;2023-03-05T15:39:30;10.77;;;9.70;;
33491;SDS011;20010;51.488;7.232;2023-03-05T15:41:57;11.60;;;10.48;;
33491;SDS011;20010;51.488;7.232;2023-03-05T15:44:24;11.02;;;9.90;;
33491;SDS011;20010;51.488;7.232;2023-03-05T15:46:50;12.85;;;11.52;;
33491;SDS011;20010;51.488;7.232;2023-03-05T15:49:17;12.52;;;11.43;;
33491;SDS011;20010;51.488;7.232;2023-03-05T15:51:44;12.48;;;11.40;;
33491;SDS011;20010;51.488;7.232;2023-03-05T15:54:10;11.73;;;10.73;;
33491;SDS011;20010;51.488;7.232;2023-03-05T15:56:38;12.88;;;11.65;;
33491;SDS011;20010;51.488;7.232;2023-03-05T15:59:05;11.88;;;10.82;;
33491;SDS011;20010;51.488;7.232;2023-03-05T16:01:32;13.75;;;12.35;;
33491;SDS011;20010;51.488;7.232;2023-03-05T16:03:59;12.25;;;11.10;;
33491;SDS011;20010;51.488;7.232;2023-03-05T16:06:26;11.75;;;10.75;;
33491;SDS011;20010;51.488;7.232;2023-03-05T16:09:01;12.13;;;11.10;;
33491;SDS011;20010;51.488;7.232;2023-03-05T16:11:32;12.48;;;11.27;;
33491;SDS011;20010;51.488;7.232;2023-03-05T16:14:05;12.65;;;11.55;;
33491;SDS011;20010;51.488;7.232;2023-03-05T16:16:39;11.35;;;10.35;;
33491;SDS011;20010;51.488;7.232;2023-03-05T16:19:19;10.80;;;9.88;;
33491;SDS011;20010;51.488;7.232;2023-03-05T16:21:50;10.80;;;9.82;;
33491;SDS011;20010;51.488;7.232;2023-03-05T16:24:25;10.57;;;9.57;;
33491;SDS011;20010;51.488;7.232;2023-03-05T16:29:32;10.90;;;9.98;;
33491;SDS011;20010;51.488;7.232;2023-03-05T16:32:06;10.30;;;9.32;;
33491;SDS011;20010;51.488;7.232;2023-03-05T16:34:35;10.43;;;9.52;;
33491;SDS011;20010;51.488;7.232;2023-03-05T16:37:03;10.82;;;9.82;;
33491;SDS011;20010;51.488;7.232;2023-03-05T16:39:41;9.98;;;9.13;;
33491;SDS011;20010;51.488;7.232;2023-03-05T16:42:13;10.02;;;9.00;;
33491;SDS011;20010;51.488;7.232;2023-03-05T16:44:41;10.55;;;9.65;;
33491;SDS011;20010;51.488;7.232;2023-03-05T16:47:12;9.90;;;9.10;;
33491;SDS011;20010;51.488;7.232;2023-03-05T16:49:42;9.38;;;8.50;;
33491;SDS011;20010;51.488;7.232;2023-03-05T16:52:12;8.33;;;7.70;;
33491;SDS011;20010;51.488;7.232;2023-03-05T16:54:55;8.88;;;8.18;;
33491;SDS011;20010;51.488;7.232;2023-03-05T16:57:29;9.55;;;8.75;;
33491;SDS011;20010;51.488;7.232;2023-03-05T16:59:56;8.55;;;7.95;;
33491;SDS011;20010;51.488;7.232;2023-03-05T17:02:26;8.50;;;7.78;;
33491;SDS011;20010;51.488;7.232;2023-03-05T17:04:59;9.60;;;8.80;;
33491;SDS011;20010;51.488;7.232;2023-03-05T17:07:38;9.02;;;8.15;;
33491;SDS011;20010;51.488;7.232;2023-03-05T17:10:13;8.13;;;7.53;;
33491;SDS011;20010;51.488;7.232;2023-03-05T17:12:47;10.73;;;9.75;;
33491;SDS011;20010;51.488;7.232;2023-03-05T17:15:22;9.25;;;8.52;;